Time;durP1;ratioP1;P1;durP2;ratioP2;P2;SDS_P1;SDS_P2;PMS_P1;PMS_P2;Temp;Humidity;BMP_temperature;BMP_pressure;BME280_temperature;BME280_humidity;BME280_pressure;Samples;Min_cycle;Max_cycle;Signal;HPM_P1;HPM_P2
2021/10/07 00:02:00;;;;;;;3.93;2.20;;;;;;;8.22;81.98;102419.66;4979736;28;20180;-76
2021/10/07 00:04:26;;;;;;;4.70;2.30;;;;;;;8.22;83.35;102426.41;5013829;28;20749;-75
2021/10/07 00:06:52;;;;;;;2.83;2.40;;;;;;;8.13;82.57;102426.78;4983206;28;20561;-78
2021/10/07 00:09:18;;;;;;;4.63;2.43;;;;;;;8.07;82.58;102425.56;4969858;28;20193;-78
2021/10/07 00:11:44;;;;;;;5.40;2.77;;;;;;;8.05;83.13;102432.22;4982250;28;20193;-78
2021/10/07 00:14:10;;;;;;;3.63;2.70;;;;;;;7.98;82.73;102441.25;4981697;28;20243;-77
2021/10/07 00:16:35;;;;;;;2.73;2.37;;;;;;;8.00;82.55;102437.09;4985348;28;20262;-77
2021/10/07 00:19:00;;;;;;;3.80;2.70;;;;;;;7.98;81.97;102436.16;4994102;28;20200;-77
2021/10/07 00:21:26;;;;;;;4.13;2.57;;;;;;;7.98;82.93;102443.78;4987079;28;20211;-76
2021/10/07 00:26:19;;;;;;;3.07;2.47;;;;;;;7.90;82.61;102452.69;4984993;28;20230;-78
2021/10/07 00:28:45;;;;;;;4.43;2.77;;;;;;;7.88;82.17;102448.28;4984882;28;20278;-75
2021/10/07 00:31:17;;;;;;;2.73;2.17;;;;;;;7.82;82.68;102450.47;4990297;28;20197;-79
2021/10/07 00:34:10;;;;;;;3.77;2.20;;;;;;;7.72;82.57;102455.84;4975370;28;20724;-78
2021/10/07 00:39:03;;;;;;;2.60;2.40;;;;;;;7.71;83.35;102465.19;4980199;28;20204;-78
2021/10/07 00:41:29;;;;;;;3.87;2.10;;;;;;;7.72;82.50;102478.81;4988236;28;20208;-77
2021/10/07 00:43:55;;;;;;;3.57;2.63;;;;;;;7.68;82.63;102470.09;4980841;28;20238;-79
2021/10/07 00:46:20;;;;;;;3.83;2.53;;;;;;;7.62;82.03;102474.88;4996974;28;20915;-76
2021/10/07 00:48:45;;;;;;;3.27;2.27;;;;;;;7.66;82.48;102481.00;4996487;28;20230;-75
2021/10/07 00:51:11;;;;;;;3.97;2.73;;;;;;;7.63;82.72;102478.28;4988754;28;20189;-78
2021/10/07 00:53:37;;;;;;;2.90;2.53;;;;;;;7.60;83.39;102478.13;4985607;28;20279;-77
2021/10/07 00:56:02;;;;;;;6.20;2.53;;;;;;;7.61;82.96;102482.41;4958704;28;20216;-76
2021/10/07 00:58:28;;;;;;;2.93;2.30;;;;;;;7.59;82.96;102482.31;5002173;28;20200;-76
2021/10/07 01:00:53;;;;;;;3.23;2.40;;;;;;;7.58;82.57;102483.13;4994060;28;20252;-77
2021/10/07 01:03:19;;;;;;;2.63;2.40;;;;;;;7.56;82.80;102489.78;4988927;28;20219;-76
2021/10/07 01:05:45;;;;;;;4.80;2.70;;;;;;;7.52;83.82;102487.00;4981208;28;20245;-76
2021/10/07 01:08:11;;;;;;;3.03;2.50;;;;;;;7.53;82.29;102489.63;4987603;28;20278;-77
2021/10/07 01:10:36;;;;;;;2.87;2.30;;;;;;;7.50;83.80;102501.28;4984558;28;20266;-77
2021/10/07 01:13:02;;;;;;;3.77;2.90;;;;;;;7.56;85.01;102494.03;4983189;28;20847;-77
2021/10/07 01:15:28;;;;;;;4.27;3.10;;;;;;;7.60;84.93;102501.91;4983341;28;20288;-76
2021/10/07 01:17:53;;;;;;;3.27;2.57;;;;;;;7.50;84.64;102489.44;4983910;28;20192;-77
2021/10/07 01:20:18;;;;;;;3.27;2.57;;;;;;;7.44;84.72;102495.84;4988808;28;20273;-76
2021/10/07 01:22:44;;;;;;;7.93;2.80;;;;;;;7.45;84.06;102507.78;4987213;28;20196;-77
2021/10/07 01:25:09;;;;;;;4.03;2.40;;;;;;;7.43;83.93;102505.19;4979372;28;20212;-77
2021/10/07 01:27:37;;;;;;;4.13;2.63;;;;;;;7.37;84.02;102503.94;4983136;28;20251;-76
2021/10/07 01:30:11;;;;;;;3.27;2.40;;;;;;;7.38;84.39;102504.00;4973117;28;20233;-76
2021/10/07 01:32:39;;;;;;;3.20;2.80;;;;;;;7.36;83.27;102497.94;5001586;28;20238;-75
2021/10/07 01:35:06;;;;;;;3.47;2.30;;;;;;;7.33;83.64;102507.09;4969525;28;20205;-76
2021/10/07 01:37:32;;;;;;;3.43;2.53;;;;;;;7.28;83.40;102505.94;4983955;28;20293;-76
2021/10/07 01:39:57;;;;;;;3.43;2.50;;;;;;;7.29;83.99;102494.97;4987487;28;20188;-78
2021/10/07 01:42:22;;;;;;;3.43;2.70;;;;;;;7.34;85.43;102503.75;4982249;28;20201;-77
2021/10/07 01:44:48;;;;;;;4.30;2.87;;;;;;;7.40;85.66;102507.53;4983262;28;20236;-77
2021/10/07 01:47:13;;;;;;;3.17;2.90;;;;;;;7.43;86.13;102499.19;5014690;28;20204;-77
2021/10/07 01:49:39;;;;;;;2.73;2.53;;;;;;;7.44;85.75;102504.38;5016675;28;20188;-77
2021/10/07 01:52:04;;;;;;;3.40;2.80;;;;;;;7.45;85.71;102498.50;4963173;28;20263;-76
2021/10/07 01:54:30;;;;;;;4.27;2.70;;;;;;;7.44;85.92;102500.94;5014745;28;20219;-76
2021/10/07 01:56:55;;;;;;;5.13;3.13;;;;;;;7.38;84.97;102511.66;4982831;28;20246;-77
2021/10/07 01:59:20;;;;;;;3.90;2.50;;;;;;;7.32;85.35;102516.41;4987156;28;20199;-76
2021/10/07 02:01:46;;;;;;;4.67;2.73;;;;;;;7.23;84.32;102513.31;4980061;28;20196;-77
2021/10/07 02:04:11;;;;;;;3.37;2.53;;;;;;;7.14;84.04;102525.50;5012493;28;20208;-76
2021/10/07 02:06:36;;;;;;;2.80;2.20;;;;;;;7.12;84.23;102523.63;4980658;28;20188;-76
2021/10/07 02:09:04;;;;;;;3.63;2.53;;;;;;;7.14;83.74;102522.09;4980969;28;20201;-75
2021/10/07 02:11:29;;;;;;;5.50;2.90;;;;;;;7.15;85.62;102523.84;5007505;28;20196;-75
2021/10/07 02:13:55;;;;;;;4.83;3.63;;;;;;;7.17;86.85;102517.16;4984467;28;20268;-77
2021/10/07 02:16:20;;;;;;;7.57;3.47;;;;;;;7.22;87.26;102520.84;4996509;28;20236;-77
2021/10/07 02:18:45;;;;;;;6.30;3.20;;;;;;;7.21;86.43;102531.84;4986274;28;20192;-77
2021/10/07 02:21:11;;;;;;;2.93;2.70;;;;;;;7.18;85.95;102532.53;4987968;28;20234;-76
2021/10/07 02:23:36;;;;;;;4.07;3.07;;;;;;;7.17;85.48;102543.50;4983442;28;20220;-75
2021/10/07 02:26:02;;;;;;;4.13;3.07;;;;;;;7.17;85.55;102535.88;5013892;28;20698;-77
2021/10/07 02:28:28;;;;;;;10.40;4.17;;;;;;;7.13;85.59;102541.56;4985299;28;20204;-76
2021/10/07 02:30:53;;;;;;;4.87;3.40;;;;;;;7.12;85.43;102541.47;4985329;28;20195;-77
2021/10/07 02:33:19;;;;;;;5.40;2.90;;;;;;;7.04;85.18;102543.56;4986240;28;20296;-76
2021/10/07 02:35:44;;;;;;;3.40;3.10;;;;;;;6.99;86.08;102544.94;4983093;28;20657;-77
2021/10/07 02:38:10;;;;;;;3.80;3.40;;;;;;;7.04;86.24;102547.78;4981731;28;20187;-76
2021/10/07 02:40:35;;;;;;;4.13;3.07;;;;;;;7.03;85.81;102548.56;4980963;28;20192;-76
2021/10/07 02:43:00;;;;;;;3.47;3.17;;;;;;;7.00;85.18;102546.69;4982760;28;20191;-76
2021/10/07 02:45:27;;;;;;;4.80;3.10;;;;;;;6.97;85.68;102549.09;4994575;28;20199;-76
2021/10/07 02:47:52;;;;;;;4.20;3.73;;;;;;;6.99;85.54;102554.25;4981488;28;20745;-76
2021/10/07 02:50:21;;;;;;;5.07;2.83;;;;;;;6.94;85.03;102550.53;4998761;28;20184;-76
2021/10/07 02:52:46;;;;;;;5.60;3.23;;;;;;;6.88;84.46;102560.34;4984842;28;20191;-76
2021/10/07 02:55:13;;;;;;;4.20;3.10;;;;;;;6.83;85.08;102567.72;4991940;28;20645;-75
2021/10/07 02:57:41;;;;;;;4.30;3.13;;;;;;;6.84;84.60;102569.47;4982425;28;20224;-77
2021/10/07 03:00:08;;;;;;;3.77;2.90;;;;;;;6.85;84.97;102575.44;4979333;28;20215;-76
2021/10/07 03:02:33;;;;;;;3.47;3.17;;;;;;;6.80;85.18;102570.06;4980856;28;20200;-75
2021/10/07 03:04:58;;;;;;;3.93;2.93;;;;;;;6.80;84.84;102575.16;4984531;28;20222;-76
2021/10/07 03:07:24;;;;;;;4.23;3.07;;;;;;;6.79;85.79;102580.16;4982548;28;20219;-77
2021/10/07 03:09:49;;;;;;;3.07;2.70;;;;;;;6.75;84.85;102575.66;4993823;28;20291;-77
2021/10/07 03:12:14;;;;;;;3.10;2.73;;;;;;;6.67;85.06;102595.53;4984214;28;20203;-76
2021/10/07 03:14:42;;;;;;;4.47;3.40;;;;;;;6.70;85.33;102598.28;4963601;28;20204;-77
2021/10/07 03:17:11;;;;;;;5.20;2.97;;;;;;;6.64;84.67;102604.66;4981241;28;20226;-77
2021/10/07 03:19:37;;;;;;;4.53;3.23;;;;;;;6.61;84.25;102607.88;4985100;28;20731;-77
2021/10/07 03:22:03;;;;;;;5.83;2.97;;;;;;;6.61;83.64;102610.44;4983688;28;20192;-77
2021/10/07 03:24:29;;;;;;;4.93;3.40;;;;;;;6.59;84.25;102613.66;4955059;28;20216;-77
2021/10/07 03:26:54;;;;;;;3.30;3.00;;;;;;;6.60;83.84;102618.84;4967068;28;20212;-76
2021/10/07 03:29:19;;;;;;;3.23;2.93;;;;;;;6.52;84.52;102614.03;4977615;28;20204;-77
2021/10/07 03:31:45;;;;;;;5.23;3.33;;;;;;;6.52;84.22;102614.94;4985693;28;20896;-76
2021/10/07 03:34:10;;;;;;;6.27;2.93;;;;;;;6.53;83.81;102618.34;4994441;28;20640;-77
2021/10/07 03:36:35;;;;;;;3.63;3.13;;;;;;;6.49;84.50;102616.41;4988352;28;20691;-76
2021/10/07 03:39:02;;;;;;;5.30;3.17;;;;;;;6.45;84.59;102620.41;4984207;28;20219;-77
2021/10/07 03:41:27;;;;;;;4.13;3.20;;;;;;;6.42;84.61;102632.94;4981868;28;20201;-77
2021/10/07 03:43:53;;;;;;;3.53;3.27;;;;;;;6.43;84.09;102638.91;4979687;28;20213;-77
2021/10/07 03:46:18;;;;;;;3.80;3.30;;;;;;;6.41;84.55;102645.56;4977753;28;20252;-76
2021/10/07 03:48:44;;;;;;;3.33;3.03;;;;;;;6.38;83.99;102643.69;4985178;28;20190;-76
2021/10/07 03:51:11;;;;;;;4.40;3.07;;;;;;;6.38;84.98;102648.78;4993385;28;20596;-76
2021/10/07 03:53:37;;;;;;;3.37;3.07;;;;;;;6.34;84.87;102649.38;4974024;28;20220;-77
2021/10/07 03:56:03;;;;;;;6.07;3.00;;;;;;;6.32;84.46;102650.94;4981550;28;20589;-76
2021/10/07 03:58:30;;;;;;;3.13;2.83;;;;;;;6.28;83.92;102654.06;4987097;28;20187;-76
2021/10/07 04:00:55;;;;;;;3.83;3.37;;;;;;;6.24;84.61;102653.75;4984047;28;20702;-76
2021/10/07 04:03:21;;;;;;;5.63;3.67;;;;;;;6.21;84.91;102653.56;4982755;28;20212;-77
2021/10/07 04:05:47;;;;;;;4.97;3.60;;;;;;;6.21;84.31;102648.47;4981693;28;20207;-77
2021/10/07 04:08:13;;;;;;;4.53;3.60;;;;;;;6.17;84.50;102656.69;5010707;28;20275;-76
2021/10/07 04:10:39;;;;;;;4.30;3.80;;;;;;;6.22;84.03;102658.72;4954511;28;20200;-78
2021/10/07 04:13:04;;;;;;;5.47;3.40;;;;;;;6.19;84.98;102658.53;4978776;28;20666;-77
2021/10/07 04:15:30;;;;;;;5.00;3.80;;;;;;;6.19;84.52;102665.28;4981339;28;20196;-75
2021/10/07 04:17:55;;;;;;;4.40;3.60;;;;;;;6.11;84.55;102674.94;4987963;28;20214;-76
2021/10/07 04:20:20;;;;;;;3.90;3.33;;;;;;;6.02;84.75;102675.97;4977366;28;20188;-77
2021/10/07 04:22:45;;;;;;;4.43;3.57;;;;;;;6.04;84.45;102680.38;4982601;28;20196;-77
2021/10/07 04:25:11;;;;;;;6.47;3.27;;;;;;;6.01;84.14;102684.41;4998938;28;20214;-78
2021/10/07 04:27:36;;;;;;;5.13;3.40;;;;;;;5.98;84.10;102691.84;4989310;28;20196;-76
2021/10/07 04:30:08;;;;;;;4.77;4.30;;;;;;;6.05;85.01;102705.06;4987662;28;20241;-78
2021/10/07 04:32:33;;;;;;;4.83;4.03;;;;;;;6.08;85.29;102699.31;4980831;28;20673;-78
2021/10/07 04:34:59;;;;;;;6.97;5.27;;;;;;;6.08;85.64;102710.34;4985800;28;20214;-77
2021/10/07 04:37:24;;;;;;;13.80;6.57;;;;;;;6.17;87.59;102708.41;5001955;28;20219;-77
2021/10/07 04:39:50;;;;;;;12.13;6.77;;;;;;;6.18;88.19;102710.16;4984155;28;20224;-78
2021/10/07 04:42:15;;;;;;;12.87;7.07;;;;;;;6.16;88.35;102711.72;4988824;28;20204;-78
2021/10/07 04:44:41;;;;;;;10.40;5.97;;;;;;;6.22;88.53;102716.34;4978864;28;20205;-76
2021/10/07 04:47:06;;;;;;;6.77;5.37;;;;;;;6.22;87.97;102719.75;5003435;28;20712;-77
2021/10/07 04:49:31;;;;;;;9.00;6.13;;;;;;;6.22;88.19;102722.31;4978543;28;20271;-76
2021/10/07 04:51:57;;;;;;;7.90;5.40;;;;;;;6.20;88.06;102721.34;4983517;28;20196;-74
2021/10/07 04:54:22;;;;;;;7.80;5.07;;;;;;;6.14;87.29;102720.94;4979723;28;20213;-75
2021/10/07 04:56:48;;;;;;;7.03;4.70;;;;;;;6.15;87.37;102722.69;4981897;28;20224;-78
2021/10/07 04:59:13;;;;;;;6.77;4.27;;;;;;;6.15;86.77;102724.34;4987415;28;20287;-78
2021/10/07 05:01:38;;;;;;;4.73;4.07;;;;;;;6.12;86.27;102731.78;4985350;28;20220;-78
2021/10/07 05:04:04;;;;;;;22.90;20.23;;;;;;;6.11;86.48;102740.16;4987370;28;20204;-76
2021/10/07 05:06:30;;;;;;;24.33;20.07;;;;;;;6.08;86.03;102735.75;5017018;28;20193;-77
2021/10/07 05:08:56;;;;;;;30.93;22.60;;;;;;;6.06;86.60;102744.97;5016858;28;20196;-76
2021/10/07 05:11:21;;;;;;;20.20;13.50;;;;;;;6.05;86.69;102755.91;4984644;28;20566;-77
2021/10/07 05:13:47;;;;;;;12.27;7.47;;;;;;;6.02;86.65;102760.78;4988068;28;20212;-77
2021/10/07 05:16:12;;;;;;;10.10;7.73;;;;;;;6.02;86.41;102767.50;5007714;28;20216;-77
2021/10/07 05:18:37;;;;;;;12.23;7.07;;;;;;;5.99;86.71;102762.25;4996371;28;20272;-77
2021/10/07 05:21:03;;;;;;;14.13;8.40;;;;;;;5.94;86.53;102768.69;4991057;28;20193;-77
2021/10/07 05:23:29;;;;;;;13.23;8.27;;;;;;;5.93;87.65;102767.78;5001186;28;20212;-77
2021/10/07 05:25:54;;;;;;;10.40;7.57;;;;;;;5.95;87.25;102775.50;4992334;28;20180;-78
2021/10/07 05:28:20;;;;;;;11.53;7.00;;;;;;;5.95;86.66;102786.53;4984845;28;20700;-78
2021/10/07 05:30:45;;;;;;;6.57;5.33;;;;;;;5.95;86.03;102786.53;4995065;28;20196;-77
2021/10/07 05:33:10;;;;;;;6.17;5.00;;;;;;;5.96;85.71;102789.97;4975867;28;20256;-77
2021/10/07 05:35:36;;;;;;;6.63;4.83;;;;;;;5.93;87.13;102788.13;4984119;28;20220;-77
2021/10/07 05:38:01;;;;;;;4.70;4.20;;;;;;;5.95;86.45;102786.53;4981399;28;20255;-77
2021/10/07 05:40:26;;;;;;;5.80;4.17;;;;;;;5.94;85.94;102789.00;4986078;28;20195;-78
2021/10/07 05:42:51;;;;;;;7.13;4.60;;;;;;;5.88;85.58;102792.00;4981215;28;20554;-76
2021/10/07 05:45:17;;;;;;;4.83;4.27;;;;;;;5.88;86.17;102794.53;4981557;28;20600;-78
2021/10/07 05:47:42;;;;;;;4.77;4.23;;;;;;;5.86;85.93;102795.22;4989062;28;20680;-77
2021/10/07 05:50:10;;;;;;;5.27;4.20;;;;;;;5.85;86.25;102801.94;4997305;28;20188;-77
2021/10/07 05:52:36;;;;;;;5.97;4.83;;;;;;;5.90;85.54;102808.22;4985742;28;20176;-78
2021/10/07 05:55:03;;;;;;;4.80;3.97;;;;;;;5.86;85.52;102813.91;4991469;28;20219;-78
2021/10/07 05:57:29;;;;;;;4.80;4.30;;;;;;;5.90;86.18;102810.75;4984357;28;20227;-77
2021/10/07 05:59:54;;;;;;;6.37;4.53;;;;;;;5.88;85.54;102812.34;4980818;28;20197;-76
2021/10/07 06:02:19;;;;;;;4.30;3.90;;;;;;;5.96;85.08;102823.03;4987937;28;20822;-77
2021/10/07 06:04:45;;;;;;;5.00;3.93;;;;;;;6.03;84.33;102820.16;4986242;28;20227;-77
2021/10/07 06:07:10;;;;;;;4.50;4.10;;;;;;;6.04;84.73;102822.78;4968893;28;20197;-77
2021/10/07 06:09:35;;;;;;;5.47;3.90;;;;;;;6.03;84.91;102826.09;4975273;28;20185;-76
2021/10/07 06:12:01;;;;;;;5.90;4.40;;;;;;;6.01;85.30;102830.22;4975454;28;20721;-77
2021/10/07 06:14:26;;;;;;;4.43;4.00;;;;;;;6.04;85.16;102832.09;4976187;28;20304;-76
2021/10/07 06:16:53;;;;;;;5.57;4.30;;;;;;;6.07;84.91;102827.19;4976811;28;20298;-78
2021/10/07 06:19:21;;;;;;;6.17;3.70;;;;;;;6.09;84.86;102838.38;4975267;28;20200;-76
2021/10/07 06:21:46;;;;;;;5.33;4.33;;;;;;;6.10;84.63;102843.56;4959245;28;20717;-77
2021/10/07 06:24:12;;;;;;;7.37;4.53;;;;;;;6.16;84.56;102841.44;4975382;28;20208;-76
2021/10/07 06:26:38;;;;;;;6.50;4.70;;;;;;;6.27;85.54;102843.03;4976530;28;20251;-77
2021/10/07 06:29:04;;;;;;;6.40;4.13;;;;;;;6.30;84.76;102853.44;4973299;28;20211;-77
2021/10/07 06:31:29;;;;;;;5.03;4.20;;;;;;;6.41;85.72;102851.63;4973921;28;20223;-77
2021/10/07 06:33:55;;;;;;;6.50;4.73;;;;;;;6.50;86.09;102853.13;4994870;28;20210;-77
2021/10/07 06:36:20;;;;;;;6.27;5.40;;;;;;;6.66;86.07;102852.50;4993018;28;20211;-77
2021/10/07 06:38:45;;;;;;;7.10;5.67;;;;;;;6.76;86.82;102860.84;5004894;28;20258;-77
2021/10/07 06:41:10;;;;;;;6.73;5.93;;;;;;;6.92;87.88;102856.00;4997888;28;20571;-78
2021/10/07 06:43:36;;;;;;;6.20;4.83;;;;;;;7.06;86.97;102865.44;5006402;28;20712;-77
2021/10/07 06:46:01;;;;;;;6.13;5.37;;;;;;;7.22;87.61;102865.66;4977060;28;20635;-77
2021/10/07 06:48:26;;;;;;;6.67;5.57;;;;;;;7.37;87.96;102865.78;4998059;28;20734;-77
2021/10/07 06:50:52;;;;;;;8.07;5.43;;;;;;;7.62;88.43;102869.09;5015131;28;20705;-78
2021/10/07 06:53:20;;;;;;;7.67;5.53;;;;;;;7.71;87.50;102872.22;5005043;28;20212;-76
2021/10/07 06:55:45;;;;;;;5.90;5.30;;;;;;;7.95;87.49;102872.09;4994361;28;20193;-77
2021/10/07 06:58:13;;;;;;;5.43;4.80;;;;;;;8.16;86.99;102880.19;4993183;28;20194;-78
2021/10/07 07:00:40;;;;;;;5.50;4.90;;;;;;;8.35;86.77;102885.66;4990474;28;20235;-77
2021/10/07 07:03:05;;;;;;;5.17;4.67;;;;;;;8.51;85.75;102885.78;4979484;28;20247;-78
2021/10/07 07:05:31;;;;;;;5.73;4.67;;;;;;;8.62;85.24;102883.09;5013496;28;20188;-77
2021/10/07 07:07:56;;;;;;;5.63;4.60;;;;;;;8.72;84.95;102893.09;5007250;28;20191;-77
2021/10/07 07:10:22;;;;;;;5.67;4.53;;;;;;;8.91;85.19;102895.03;4994505;28;20698;-77
2021/10/07 07:12:49;;;;;;;5.33;4.83;;;;;;;9.08;83.83;102887.56;4995728;28;20587;-77
2021/10/07 07:15:16;;;;;;;6.40;4.70;;;;;;;9.32;83.42;102893.22;4978025;28;20206;-76
2021/10/07 07:17:41;;;;;;;5.20;3.60;;;;;;;9.51;83.05;102898.56;4978625;28;20216;-76
2021/10/07 07:20:08;;;;;;;5.07;4.57;;;;;;;9.51;82.80;102901.13;4994772;28;20669;-75
2021/10/07 07:22:34;;;;;;;7.43;4.23;;;;;;;9.84;82.53;102900.44;4994741;28;20738;-76
2021/10/07 07:24:59;;;;;;;4.97;3.83;;;;;;;9.98;81.63;102905.53;4995962;28;20200;-77
2021/10/07 07:27:25;;;;;;;5.57;3.73;;;;;;;10.16;81.12;102910.81;4994415;28;20202;-77
2021/10/07 07:29:51;;;;;;;4.33;3.97;;;;;;;10.28;81.25;102912.34;4988361;28;20239;-77
2021/10/07 07:32:16;;;;;;;4.33;3.73;;;;;;;10.54;80.08;102908.59;5003427;28;20192;-78
2021/10/07 07:34:43;;;;;;;5.13;3.40;;;;;;;10.53;79.22;102905.16;5016444;28;20203;-76
2021/10/07 07:37:08;;;;;;;4.53;4.00;;;;;;;10.83;78.87;102911.88;4980884;28;20223;-76
2021/10/07 07:39:34;;;;;;;4.73;3.83;;;;;;;10.85;78.48;102912.84;4996111;28;20274;-77
2021/10/07 07:41:59;;;;;;;4.83;3.57;;;;;;;11.15;77.68;102918.66;4995536;28;20341;-77
2021/10/07 07:44:25;;;;;;;5.33;3.93;;;;;;;11.32;77.93;102916.13;4980222;28;20204;-77
2021/10/07 07:46:50;;;;;;;4.00;3.60;;;;;;;11.57;75.66;102916.50;4987666;28;20224;-78
2021/10/07 07:49:16;;;;;;;4.33;3.93;;;;;;;11.59;75.90;102920.06;4972233;28;20219;-77
2021/10/07 07:51:41;;;;;;;5.27;4.13;;;;;;;11.87;76.90;102911.97;4974224;28;20220;-78
2021/10/07 07:54:06;;;;;;;5.83;3.90;;;;;;;12.18;75.69;102931.47;4966231;28;20276;-77
2021/10/07 07:56:33;;;;;;;7.00;4.30;;;;;;;12.21;74.71;102928.19;4964024;28;20212;-78
2021/10/07 07:58:58;;;;;;;5.53;4.17;;;;;;;12.38;74.50;102930.69;4999122;28;20223;-77
2021/10/07 08:01:24;;;;;;;7.77;3.87;;;;;;;12.59;72.56;102925.66;5002413;28;20203;-78
2021/10/07 08:03:49;;;;;;;5.43;4.00;;;;;;;12.58;73.32;102918.75;5002161;28;20212;-78
2021/10/07 08:06:17;;;;;;;7.20;3.80;;;;;;;12.65;72.78;102924.22;5000126;28;20198;-78
2021/10/07 08:08:43;;;;;;;7.50;3.83;;;;;;;12.91;72.51;102921.09;5000425;28;20591;-77
2021/10/07 08:11:12;;;;;;;4.83;3.90;;;;;;;13.22;72.56;102909.56;4999866;28;20196;-77
2021/10/07 08:13:37;;;;;;;5.77;3.57;;;;;;;13.55;70.58;102911.84;5000604;28;20211;-77
2021/10/07 08:16:02;;;;;;;3.70;3.40;;;;;;;13.36;71.10;102917.06;4991465;28;20216;-76
2021/10/07 08:18:28;;;;;;;6.67;4.10;;;;;;;13.64;70.98;102917.38;4981634;28;20196;-77
2021/10/07 08:20:53;;;;;;;6.37;4.20;;;;;;;13.98;70.22;102911.81;5013606;28;20197;-77
2021/10/07 08:23:23;;;;;;;5.63;3.70;;;;;;;14.16;69.96;102913.41;4981644;28;20285;-78
2021/10/07 08:25:49;;;;;;;6.30;3.77;;;;;;;14.25;69.86;102910.34;4996194;28;20253;-77
2021/10/07 08:28:14;;;;;;;6.67;3.77;;;;;;;14.38;68.44;102921.19;4985795;28;20606;-77
2021/10/07 08:30:40;;;;;;;6.73;4.37;;;;;;;14.56;69.84;102911.53;4978629;28;20235;-78
2021/10/07 08:33:05;;;;;;;5.93;3.80;;;;;;;14.93;67.75;102913.72;4991590;28;20223;-76
2021/10/07 08:35:31;;;;;;;5.63;4.03;;;;;;;14.96;67.88;102919.00;5000841;28;20242;-76
2021/10/07 08:37:57;;;;;;;7.47;3.77;;;;;;;15.26;66.42;102918.34;4995571;28;20230;-77
2021/10/07 08:40:23;;;;;;;4.60;3.90;;;;;;;15.19;66.63;102915.50;4980722;28;20196;-77
2021/10/07 08:42:48;;;;;;;6.00;3.90;;;;;;;15.54;66.12;102914.97;4981865;28;20184;-77
2021/10/07 08:45:14;;;;;;;5.97;3.77;;;;;;;15.37;65.86;102921.31;4965684;28;20224;-77
2021/10/07 08:47:42;;;;;;;4.70;3.77;;;;;;;15.63;65.76;102917.88;4961654;28;20185;-77
2021/10/07 08:50:09;;;;;;;4.97;3.87;;;;;;;15.68;65.56;102924.94;4975402;28;20771;-76
2021/10/07 08:52:35;;;;;;;3.93;3.63;;;;;;;15.59;63.91;102916.91;4978835;28;20275;-77
2021/10/07 08:55:00;;;;;;;7.17;4.13;;;;;;;15.91;63.91;102928.22;4979224;28;20307;-77
2021/10/07 08:57:26;;;;;;;5.13;4.03;;;;;;;16.21;62.80;102924.03;4978996;28;20221;-77
2021/10/07 08:59:52;;;;;;;3.90;3.27;;;;;;;16.74;62.06;102913.50;4979495;28;20196;-77
2021/10/07 09:02:31;;;;;;;4.17;2.93;;;;;;;18.32;56.35;102905.34;4978667;28;20283;-76
2021/10/07 09:05:10;;;;;;;3.37;3.07;;;;;;;24.56;42.06;102889.78;4975567;28;20243;-77
2021/10/07 09:07:57;;;;;;;3.50;3.20;;;;;;;28.12;35.29;102882.66;4975955;28;20219;-77
2021/10/07 09:10:45;;;;;;;3.33;3.03;;;;;;;29.34;32.96;102873.69;4959368;28;20184;-78
2021/10/07 09:13:22;;;;;;;5.05;3.00;;;;;;;28.97;31.60;102883.41;4977266;28;20221;-78
2021/10/07 09:15:59;;;;;;;4.43;2.85;;;;;;;28.24;32.96;102885.94;4975401;28;20196;-78
2021/10/07 09:18:28;;;;;;;2.75;2.53;;;;;;;29.59;31.88;102882.75;4967830;28;20204;-79
2021/10/07 09:20:56;;;;;;;3.13;2.58;;;;;;;29.43;31.55;102876.09;4957493;29;20260;-77
2021/10/07 09:23:34;;;;;;;4.18;3.33;;;;;;;30.50;29.99;102872.19;4971303;28;20212;-76
2021/10/07 09:26:06;;;;;;;3.25;2.95;;;;;;;31.53;28.65;102871.44;4977151;28;20192;-77
2021/10/07 09:28:54;;;;;;;3.15;2.50;;;;;;;31.70;28.85;102876.13;4976117;28;20684;-79
2021/10/07 09:31:28;;;;;;;3.85;2.60;;;;;;;31.35;29.25;102869.41;4940845;28;20240;-78
2021/10/07 09:33:58;;;;;;;3.05;2.75;;;;;;;33.02;27.11;102860.41;4975785;28;20291;-78
2021/10/07 09:36:24;;;;;;;3.13;2.83;;;;;;;33.25;26.53;102869.16;4959733;28;20232;-77
2021/10/07 09:38:52;;;;;;;2.63;2.42;;;;;;;33.21;26.63;102885.28;4985125;28;20181;-78
2021/10/07 09:41:26;;;;;;;3.13;2.80;;;;;;;33.34;27.08;102879.38;4976424;28;20204;-76
2021/10/07 09:43:53;;;;;;;2.85;2.65;;;;;;;32.99;26.07;102882.66;4976977;28;20217;-77
2021/10/07 09:46:46;;;;;;;3.25;2.90;;;;;;;32.44;26.60;102888.41;4959652;28;20725;-78
2021/10/07 09:49:33;;;;;;;3.45;2.83;;;;;;;34.15;25.17;102880.19;4978051;28;20185;-79
2021/10/07 09:51:58;;;;;;;4.68;3.30;;;;;;;33.70;25.01;102891.09;4955286;28;20256;-78
2021/10/07 09:54:27;;;;;;;2.97;2.40;;;;;;;33.78;25.67;102888.09;4958531;28;20205;-78
2021/10/07 09:57:01;;;;;;;3.38;2.70;;;;;;;34.20;25.31;102880.88;4956998;29;20221;-77
2021/10/07 09:59:31;;;;;;;3.17;2.80;;;;;;;33.30;25.92;102884.91;4973235;28;20624;-77
2021/10/07 10:01:58;;;;;;;3.45;2.65;;;;;;;34.58;24.04;102885.28;4956841;29;20192;-78
2021/10/07 10:04:25;;;;;;;3.28;2.97;;;;;;;33.00;25.94;102886.16;4974693;28;20217;-78
2021/10/07 10:06:50;;;;;;;4.97;3.03;;;;;;;33.35;25.64;102889.13;4977050;28;20176;-78
2021/10/07 10:09:20;;;;;;;3.20;2.42;;;;;;;36.50;23.45;102883.13;4969731;28;20201;-79
2021/10/07 10:11:45;;;;;;;3.08;2.78;;;;;;;37.05;21.54;102884.38;4972423;28;20189;-79
2021/10/07 10:14:11;;;;;;;2.72;2.30;;;;;;;37.06;21.10;102881.63;4956612;28;20213;-78
2021/10/07 10:16:37;;;;;;;2.67;2.47;;;;;;;34.76;23.60;102887.88;4956504;28;20197;-79
2021/10/07 10:19:05;;;;;;;3.22;2.60;;;;;;;34.46;23.38;102900.03;4959319;28;20221;-78
2021/10/07 10:21:37;;;;;;;2.60;2.40;;;;;;;36.33;22.87;102884.09;4958153;28;20213;-78
2021/10/07 10:24:04;;;;;;;3.28;2.60;;;;;;;35.80;22.40;102895.94;4958161;28;20263;-78
2021/10/07 10:26:29;;;;;;;3.13;2.80;;;;;;;36.54;22.58;102890.03;4966717;28;20212;-78
2021/10/07 10:28:55;;;;;;;3.05;2.53;;;;;;;35.40;22.71;102889.13;4957147;29;20659;-78
2021/10/07 10:31:33;;;;;;;2.78;2.58;;;;;;;36.27;21.64;102884.44;4973794;28;20296;-78
2021/10/07 10:34:14;;;;;;;3.13;2.50;;;;;;;35.11;22.80;102891.50;4975038;28;20219;-77
2021/10/07 10:36:51;;;;;;;4.25;2.70;;;;;;;36.22;22.69;102886.50;4976036;28;20236;-77
2021/10/07 10:39:36;;;;;;;2.90;2.70;;;;;;;34.99;23.53;102900.13;4976133;28;20688;-78
2021/10/07 10:42:18;;;;;;;3.45;2.10;;;;;;;35.16;22.15;102893.00;4974851;28;20219;-78
2021/10/07 10:44:46;;;;;;;4.07;2.10;;;;;;;34.20;23.04;102889.69;4956760;28;20285;-77
2021/10/07 10:47:12;;;;;;;2.92;2.17;;;;;;;36.50;21.58;102889.34;4987132;28;20248;-78
2021/10/07 10:49:42;;;;;;;2.85;2.55;;;;;;;35.75;21.77;102901.53;4970601;28;20774;-79
2021/10/07 10:52:24;;;;;;;3.47;2.40;;;;;;;34.84;22.82;102898.19;4987296;28;20193;-78
2021/10/07 10:54:53;;;;;;;2.63;2.42;;;;;;;35.29;22.33;102887.94;4987123;28;20206;-78
2021/10/07 10:57:42;;;;;;;3.45;2.38;;;;;;;34.67;22.77;102888.34;4955074;28;20559;-79
2021/10/07 11:00:09;;;;;;;2.70;2.50;;;;;;;34.16;24.01;102903.22;4959063;28;20205;-79
2021/10/07 11:02:36;;;;;;;3.08;2.33;;;;;;;35.68;23.27;102896.56;4968564;28;20223;-79
2021/10/07 11:05:18;;;;;;;2.58;2.15;;;;;;;37.82;22.21;102887.75;4974098;28;20201;-80
2021/10/07 11:07:44;;;;;;;2.20;1.88;;;;;;;35.95;23.43;102895.09;4974250;28;20236;-80
2021/10/07 11:10:28;;;;;;;2.28;2.03;;;;;;;35.20;23.02;102910.59;4975884;28;20736;-80
2021/10/07 11:12:56;;;;;;;3.67;2.20;;;;;;;35.22;24.37;102908.69;4993383;28;20204;-77
2021/10/07 11:15:24;;;;;;;2.97;2.05;;;;;;;33.44;25.35;102906.44;4995520;28;20191;-76
2021/10/07 11:17:51;;;;;;;3.05;2.30;;;;;;;30.40;28.66;102913.97;4986130;28;20227;-80
2021/10/07 11:20:29;;;;;;;3.03;2.30;;;;;;;29.76;29.94;102919.28;4997905;28;20188;-78
2021/10/07 11:23:12;;;;;;;3.55;2.17;;;;;;;28.80;31.19;102921.66;5026389;28;20213;-77
2021/10/07 11:25:41;;;;;;;3.35;2.53;;;;;;;27.74;32.62;102932.56;4992308;28;20679;-78
2021/10/07 11:28:07;;;;;;;3.10;2.80;;;;;;;27.36;32.97;102920.06;5013388;28;20277;-78
2021/10/07 11:30:36;;;;;;;4.00;3.20;;;;;;;26.78;34.19;102926.22;4999358;28;20199;-78
2021/10/07 11:33:02;;;;;;;3.55;2.53;;;;;;;27.54;34.31;102925.03;4980626;28;20237;-79
2021/10/07 11:35:30;;;;;;;3.35;3.00;;;;;;;28.11;33.29;102923.13;4999728;28;20263;-78